createdAt,value
2023-09-14T00:01:19.273Z,99657.52
2023-09-14T00:03:48.153Z,99657.03
2023-09-14T00:06:16.758Z,99651.29
2023-09-14T00:08:45.475Z,99652.67
2023-09-14T00:11:14.526Z,99648.48
2023-09-14T00:13:43.081Z,99647.77
2023-09-14T00:16:11.665Z,99648.20
2023-09-14T00:18:40.246Z,99647.56
2023-09-14T00:21:08.808Z,99648.55
2023-09-14T00:23:37.296Z,99639.48
2023-09-14T00:26:05.775Z,99645.98
2023-09-14T00:28:34.309Z,99644.52
2023-09-14T00:31:03.518Z,99642.95
2023-09-14T00:33:32.328Z,99643.04
2023-09-14T00:36:00.818Z,99644.71
2023-09-14T00:38:29.741Z,99643.09
2023-09-14T00:40:58.236Z,99638.69
2023-09-14T00:43:26.759Z,99641.64
2023-09-14T00:45:56.601Z,99636.20
2023-09-14T00:48:26.112Z,99631.77
2023-09-14T00:50:54.702Z,99632.15
2023-09-14T00:53:23.883Z,99628.19
2023-09-14T00:55:52.858Z,99624.89
2023-09-14T00:58:22.138Z,99625.65
2023-09-14T01:00:51.150Z,99625.94
2023-09-14T01:03:20.282Z,99625.13
2023-09-14T01:05:50.159Z,99625.29
2023-09-14T01:08:18.578Z,99626.55
2023-09-14T01:10:47.664Z,99620.11
2023-09-14T01:13:57.585Z,99622.79
2023-09-14T01:16:34.088Z,99622.04
2023-09-14T01:19:39.916Z,99612.63
2023-09-14T01:22:43.674Z,99605.57
2023-09-14T01:25:46.972Z,99616.48
2023-09-14T01:28:16.433Z,99615.65
2023-09-14T01:30:44.854Z,99613.80
2023-09-14T01:33:16.108Z,99617.95
2023-09-14T01:35:57.660Z,99618.79
2023-09-14T01:38:28.202Z,99621.94
2023-09-14T01:40:57.589Z,99617.02
2023-09-14T01:43:26.695Z,99615.68
2023-09-14T01:45:55.475Z,99623.06
2023-09-14T01:48:24.860Z,99622.11
2023-09-14T01:50:53.386Z,99617.52
2023-09-14T01:53:22.169Z,99627.44
2023-09-14T01:55:50.641Z,99624.02
2023-09-14T01:58:19.294Z,99628.05
2023-09-14T02:00:47.917Z,99625.60
2023-09-14T02:03:16.473Z,99612.45
2023-09-14T02:05:45.196Z,99624.42
2023-09-14T02:08:13.722Z,99623.81
2023-09-14T02:10:42.236Z,99621.39
2023-09-14T02:13:10.755Z,99625.16
2023-09-14T02:15:39.404Z,99617.79
2023-09-14T02:18:09.044Z,99619.67
2023-09-14T02:20:37.644Z,99620.90
2023-09-14T02:23:07.239Z,99620.89
2023-09-14T02:25:35.725Z,99621.34
2023-09-14T02:28:04.901Z,99616.30
2023-09-14T02:30:33.500Z,99613.44
2023-09-14T02:33:01.972Z,99619.02
2023-09-14T02:35:30.454Z,99616.64
2023-09-14T02:37:59.035Z,99623.20
2023-09-14T02:40:30.684Z,99623.59
2023-09-14T02:43:00.080Z,99621.40
2023-09-14T02:45:28.649Z,99622.77
2023-09-14T02:47:57.216Z,99623.80
2023-09-14T02:50:25.780Z,99615.21
2023-09-14T02:52:54.373Z,99621.81
2023-09-14T02:55:22.900Z,99621.83
2023-09-14T02:57:51.870Z,99621.89
2023-09-14T03:00:20.957Z,99628.08
2023-09-14T03:02:50.717Z,99625.63
2023-09-14T03:05:19.493Z,99627.56
2023-09-14T03:07:49.795Z,99623.02
2023-09-14T03:10:18.772Z,99629.60
2023-09-14T03:12:47.289Z,99627.11
2023-09-14T03:15:15.910Z,99624.56
2023-09-14T03:17:44.611Z,99627.70
2023-09-14T03:20:13.124Z,99626.33
2023-09-14T03:22:41.583Z,99624.37
2023-09-14T03:25:10.276Z,99618.80
2023-09-14T03:27:40.235Z,99626.41
2023-09-14T03:30:10.082Z,99627.74
2023-09-14T03:32:38.585Z,99625.15
2023-09-14T03:35:07.186Z,99619.63
2023-09-14T03:37:37.420Z,99629.11
2023-09-14T03:40:09.917Z,99623.89
2023-09-14T03:42:39.179Z,99622.43
2023-09-14T03:45:08.847Z,99626.94
2023-09-14T03:47:37.628Z,99631.26
2023-09-14T03:50:07.757Z,99633.42
2023-09-14T03:52:37.057Z,99635.92
2023-09-14T03:55:06.341Z,99641.16
2023-09-14T03:57:34.983Z,99640.09
2023-09-14T04:00:10.908Z,99636.42
2023-09-14T04:02:41.790Z,99639.99
2023-09-14T04:05:18.936Z,99635.67
2023-09-14T04:07:49.033Z,99638.91
2023-09-14T04:10:17.657Z,99641.17
2023-09-14T04:12:46.479Z,99644.70
2023-09-14T04:15:15.033Z,99642.90
2023-09-14T04:17:44.080Z,99640.63
2023-09-14T04:20:12.815Z,99640.15
2023-09-14T04:22:42.416Z,99641.24
2023-09-14T04:25:10.933Z,99634.84
2023-09-14T04:27:39.682Z,99631.52
2023-09-14T04:30:09.791Z,99640.04
2023-09-14T04:32:39.007Z,99638.94
2023-09-14T04:35:08.846Z,99642.64
2023-09-14T04:37:37.332Z,99633.80
2023-09-14T04:40:10.442Z,99646.73
2023-09-14T04:42:39.264Z,99646.92
2023-09-14T04:45:08.630Z,99649.52
2023-09-14T04:47:37.329Z,99645.17
2023-09-14T04:50:06.960Z,99636.08
2023-09-14T04:52:35.638Z,99638.98
2023-09-14T04:55:05.832Z,99643.73
2023-09-14T04:57:34.422Z,99640.65
2023-09-14T05:00:05.420Z,99638.80
2023-09-14T05:02:34.177Z,99627.42
2023-09-14T05:05:04.442Z,99630.37
2023-09-14T05:07:33.830Z,99628.16
2023-09-14T05:10:04.022Z,99633.61
2023-09-14T05:12:46.945Z,99633.47
2023-09-14T05:15:19.868Z,99632.27
2023-09-14T05:17:48.423Z,99630.58
2023-09-14T05:20:17.067Z,99634.00
2023-09-14T05:22:45.738Z,99626.56
2023-09-14T05:25:14.472Z,99629.04
2023-09-14T05:27:43.397Z,99621.68
2023-09-14T05:30:12.832Z,99619.86
2023-09-14T05:32:43.583Z,99621.42
2023-09-14T05:35:13.410Z,99621.62
2023-09-14T05:37:41.955Z,99619.96
2023-09-14T05:40:16.243Z,99619.73
2023-09-14T05:42:53.444Z,99613.15
2023-09-14T05:45:25.052Z,99615.02
2023-09-14T05:47:53.709Z,99608.99
2023-09-14T05:50:37.166Z,99606.59
2023-09-14T05:53:07.756Z,99615.56
2023-09-14T05:55:46.628Z,99612.73
2023-09-14T05:58:20.081Z,99606.63
2023-09-14T06:00:49.172Z,99610.04
2023-09-14T06:03:20.310Z,99615.34
2023-09-14T06:05:48.993Z,99612.02
2023-09-14T06:08:17.489Z,99614.91
2023-09-14T06:10:46.218Z,99617.71
2023-09-14T06:13:14.771Z,99623.36
2023-09-14T06:15:43.427Z,99616.73
2023-09-14T06:18:12.117Z,99617.30
2023-09-14T06:20:42.062Z,99618.56
2023-09-14T06:23:10.900Z,99630.48
2023-09-14T06:25:39.454Z,99633.46
2023-09-14T06:28:08.061Z,99636.56
2023-09-14T06:30:38.908Z,99638.43
2023-09-14T06:33:07.572Z,99636.03
2023-09-14T06:35:36.996Z,99628.01
2023-09-14T06:38:05.715Z,99639.73
2023-09-14T06:40:34.767Z,99639.66
2023-09-14T06:43:05.934Z,99636.14
2023-09-14T06:45:34.842Z,99633.15
2023-09-14T06:48:03.509Z,99631.73
2023-09-14T06:50:32.853Z,99638.11
2023-09-14T06:53:01.380Z,99641.10
2023-09-14T06:55:30.330Z,99646.34
2023-09-14T06:57:59.029Z,99632.04
2023-09-14T07:00:29.192Z,99628.55
2023-09-14T07:02:58.464Z,99639.50
2023-09-14T07:05:27.585Z,99642.70
2023-09-14T07:07:56.666Z,99646.74
2023-09-14T07:10:26.910Z,99646.70
2023-09-14T07:12:55.667Z,99646.04
2023-09-14T07:15:24.464Z,99637.48
2023-09-14T07:17:53.964Z,99645.11
2023-09-14T07:20:23.140Z,99642.85
2023-09-14T07:22:52.418Z,99645.14
2023-09-14T07:25:22.520Z,99643.95
2023-09-14T07:27:52.239Z,99646.12
2023-09-14T07:30:21.224Z,99645.23
2023-09-14T07:32:51.131Z,99641.51
2023-09-14T07:35:19.819Z,99643.09
2023-09-14T07:37:48.364Z,99628.77
2023-09-14T07:40:17.027Z,99634.72
2023-09-14T07:42:45.715Z,99624.75
2023-09-14T07:45:14.896Z,99638.30
2023-09-14T07:47:49.003Z,99647.25
2023-09-14T07:50:18.409Z,99648.40
2023-09-14T07:52:47.768Z,99641.17
2023-09-14T07:55:16.846Z,99642.15
2023-09-14T07:57:46.026Z,99649.93
2023-09-14T08:00:14.911Z,99649.59
2023-09-14T08:02:43.539Z,99649.86
2023-09-14T08:05:13.238Z,99646.48
2023-09-14T08:07:48.730Z,99643.59
2023-09-14T08:10:17.549Z,99647.61
2023-09-14T08:12:46.948Z,99642.77
2023-09-14T08:15:16.709Z,99644.68
2023-09-14T08:17:46.335Z,99647.18
2023-09-14T08:20:15.157Z,99644.79
2023-09-14T08:22:43.904Z,99640.45
2023-09-14T08:25:12.629Z,99637.30
2023-09-14T08:27:41.906Z,99634.84
2023-09-14T08:30:12.257Z,99633.74
2023-09-14T08:32:40.799Z,99628.55
2023-09-14T08:35:27.294Z,99627.50
2023-09-14T08:37:56.673Z,99630.77
2023-09-14T08:40:27.034Z,99630.98
2023-09-14T08:42:56.177Z,99619.74
2023-09-14T08:45:33.099Z,99614.35
2023-09-14T08:48:06.303Z,99615.27
2023-09-14T08:50:35.424Z,99613.21
2023-09-14T08:53:04.147Z,99614.96
2023-09-14T08:55:40.931Z,99620.31
2023-09-14T08:58:11.565Z,99618.02
2023-09-14T09:00:41.361Z,99619.40
2023-09-14T09:03:10.089Z,99613.16
2023-09-14T09:05:42.786Z,99613.83
2023-09-14T09:08:12.551Z,99617.55
2023-09-14T09:10:43.576Z,99615.17
2023-09-14T09:13:23.589Z,99611.89
2023-09-14T09:15:52.202Z,99616.04
2023-09-14T09:18:21.267Z,99612.41
2023-09-14T09:20:50.888Z,99609.98
2023-09-14T09:23:22.443Z,99599.98
2023-09-14T09:25:54.414Z,99599.94
2023-09-14T09:28:32.377Z,99602.91
2023-09-14T09:31:03.686Z,99597.31
2023-09-14T09:33:37.617Z,99595.62
2023-09-14T09:36:17.838Z,99593.09
2023-09-14T09:38:50.040Z,99589.55
2023-09-14T09:41:19.127Z,99585.15
2023-09-14T09:43:51.238Z,99586.52
2023-09-14T09:46:19.984Z,99580.56
2023-09-14T09:48:49.560Z,99581.98
2023-09-14T09:51:23.562Z,99582.05
2023-09-14T09:54:09.188Z,99574.73
2023-09-14T09:56:40.386Z,99571.45
2023-09-14T09:59:14.519Z,99570.14
2023-09-14T10:01:49.658Z,99559.13
2023-09-14T10:04:19.529Z,99559.05
2023-09-14T10:06:58.727Z,99560.51
2023-09-14T10:09:35.713Z,99558.05
2023-09-14T10:12:05.114Z,99552.34
2023-09-14T10:14:37.304Z,99550.00
2023-09-14T10:17:12.418Z,99550.98
2023-09-14T10:19:44.098Z,99552.18
2023-09-14T10:22:13.281Z,99556.52
2023-09-14T10:24:43.391Z,99557.18
2023-09-14T10:27:14.918Z,99553.96
2023-09-14T10:29:45.544Z,99550.42
2023-09-14T10:32:19.157Z,99552.85
2023-09-14T10:35:05.035Z,99551.24
2023-09-14T10:37:37.366Z,99545.42
2023-09-14T10:40:10.214Z,99542.47
2023-09-14T10:42:38.897Z,99528.73
2023-09-14T10:45:09.355Z,99540.91
2023-09-14T10:47:41.755Z,99537.77
2023-09-14T10:50:12.088Z,99529.16
2023-09-14T10:52:43.189Z,99528.05
2023-09-14T10:55:14.214Z,99525.59
2023-09-14T10:57:43.351Z,99525.61
2023-09-14T11:00:49.503Z,99523.00
2023-09-14T11:03:24.622Z,99524.27
2023-09-14T11:05:56.730Z,99521.71
2023-09-14T11:09:05.757Z,99503.66
2023-09-14T11:12:22.725Z,99512.84
2023-09-14T11:15:22.483Z,99508.82
2023-09-14T11:17:56.394Z,99508.83
2023-09-14T11:20:26.641Z,99504.23
2023-09-14T11:23:04.445Z,99499.41
2023-09-14T11:25:51.113Z,99500.42
2023-09-14T11:28:26.833Z,99499.50
2023-09-14T11:30:55.743Z,99489.91
2023-09-14T11:33:26.899Z,99493.94
2023-09-14T11:35:57.310Z,99492.94
2023-09-14T11:38:33.553Z,99492.81
2023-09-14T11:41:23.860Z,99482.86
2023-09-14T11:51:56.054Z,99486.38
2023-09-14T11:54:32.869Z,99482.19
2023-09-14T11:57:05.614Z,99480.05
2023-09-14T11:59:34.662Z,99478.09
2023-09-14T12:02:05.005Z,99475.75
2023-09-14T12:04:33.860Z,99474.58
2023-09-14T12:07:03.405Z,99462.98
2023-09-14T12:09:42.969Z,99465.85
2023-09-14T12:12:27.622Z,99469.71
2023-09-14T12:14:59.373Z,99469.34
2023-09-14T12:17:30.340Z,99469.60
2023-09-14T12:20:01.946Z,99469.80
2023-09-14T12:22:33.523Z,99466.44
2023-09-14T12:25:05.555Z,99464.45
2023-09-14T12:27:36.414Z,99462.98
2023-09-14T12:30:09.291Z,99458.70
2023-09-14T12:32:41.899Z,99447.35
2023-09-14T12:35:14.323Z,99455.29
2023-09-14T12:37:44.689Z,99453.70
2023-09-14T12:40:14.569Z,99448.73
2023-09-14T12:42:44.735Z,99448.13
2023-09-14T12:45:18.332Z,99446.92
2023-09-14T12:47:48.855Z,99441.23
2023-09-14T12:50:17.493Z,99443.27
2023-09-14T12:52:55.109Z,99438.98
2023-09-14T12:55:23.999Z,99437.27
2023-09-14T12:57:54.958Z,99436.70
2023-09-14T13:00:29.153Z,99431.02
2023-09-14T13:02:58.085Z,99430.06
2023-09-14T13:05:28.384Z,99425.02
2023-09-14T13:08:01.468Z,99424.71
2023-09-14T13:10:34.358Z,99427.65
2023-09-14T13:13:03.014Z,99421.70
2023-09-14T13:15:32.964Z,99427.92
2023-09-14T13:18:17.137Z,99429.59
2023-09-14T13:20:50.474Z,99423.06
2023-09-14T13:23:25.422Z,99420.00
2023-09-14T13:25:53.987Z,99416.39
2023-09-14T13:28:22.660Z,99418.10
2023-09-14T13:30:51.291Z,99409.80
2023-09-14T13:33:23.423Z,99401.03
2023-09-14T13:35:53.773Z,99401.40
2023-09-14T13:38:22.267Z,99400.80
2023-09-14T13:40:51.748Z,99404.98
2023-09-14T13:43:20.208Z,99403.67
2023-09-14T13:45:48.900Z,99401.23
2023-09-14T13:48:17.473Z,99395.95
2023-09-14T13:50:45.837Z,99398.05
2023-09-14T13:53:16.857Z,99395.29
2023-09-14T13:55:46.367Z,99388.98
2023-09-14T13:58:14.911Z,99387.48
2023-09-14T14:00:43.250Z,99387.08
2023-09-14T14:03:12.955Z,99389.66
2023-09-14T14:05:42.671Z,99386.73
2023-09-14T14:08:11.051Z,99381.76
2023-09-14T14:10:40.184Z,99382.26
2023-09-14T14:13:08.889Z,99380.89
2023-09-14T14:15:37.519Z,99381.13
2023-09-14T14:18:06.310Z,99377.77
2023-09-14T14:20:36.246Z,99381.08
2023-09-14T14:23:06.841Z,99370.84
2023-09-14T14:25:35.483Z,99373.89
2023-09-14T14:28:04.088Z,99372.41
2023-09-14T14:30:32.564Z,99369.15
2023-09-14T14:33:00.964Z,99370.98
2023-09-14T14:35:29.564Z,99371.72
2023-09-14T14:37:58.428Z,99365.02
2023-09-14T14:42:59.198Z,99371.00
2023-09-14T14:45:27.842Z,99370.38
2023-09-14T14:47:56.438Z,99371.54
2023-09-14T14:50:24.906Z,99378.55
2023-09-14T14:52:53.418Z,99377.48
2023-09-14T14:55:23.350Z,99374.52
2023-09-14T14:57:51.970Z,99374.07
2023-09-14T15:00:20.869Z,99372.82
2023-09-14T15:02:49.393Z,99371.01
2023-09-14T15:05:17.916Z,99376.34
2023-09-14T15:07:47.525Z,99376.21
2023-09-14T15:10:16.062Z,99375.75
2023-09-14T15:12:44.582Z,99373.80
2023-09-14T15:15:18.933Z,99374.13
2023-09-14T15:17:47.450Z,99377.98
2023-09-14T15:20:16.358Z,99377.60
2023-09-14T15:22:45.649Z,99383.56
2023-09-14T15:25:14.560Z,99385.63
2023-09-14T15:27:43.207Z,99384.21
2023-09-14T15:30:12.796Z,99382.20
2023-09-14T15:32:45.446Z,99381.41
2023-09-14T15:35:14.567Z,99383.86
2023-09-14T15:37:43.219Z,99384.55
2023-09-14T15:40:13.169Z,99383.19
2023-09-14T15:42:44.626Z,99380.70
2023-09-14T15:45:13.356Z,99381.95
2023-09-14T15:47:43.674Z,99386.86
2023-09-14T15:50:12.386Z,99384.39
2023-09-14T15:52:40.816Z,99389.19
2023-09-14T15:55:21.097Z,99395.58
2023-09-14T15:57:58.659Z,99399.70
2023-09-14T16:00:27.539Z,99399.44
2023-09-14T16:02:56.098Z,99401.20
2023-09-14T16:05:24.637Z,99393.36
2023-09-14T16:08:08.309Z,99400.70
2023-09-14T16:10:37.698Z,99397.23
2023-09-14T16:13:06.583Z,99404.13
2023-09-14T16:15:35.192Z,99407.89
2023-09-14T16:18:04.991Z,99414.15
2023-09-14T16:20:33.649Z,99411.04
2023-09-14T16:23:02.298Z,99407.11
2023-09-14T16:25:32.280Z,99413.86
2023-09-14T16:28:00.970Z,99411.92
2023-09-14T16:30:29.548Z,99419.08
2023-09-14T16:32:58.175Z,99422.98
2023-09-14T16:35:26.832Z,99423.32
2023-09-14T16:37:55.298Z,99426.34
2023-09-14T16:40:23.927Z,99430.52
2023-09-14T16:42:52.493Z,99431.96
2023-09-14T16:45:21.661Z,99425.73
2023-09-14T16:47:50.378Z,99425.30
2023-09-14T16:50:19.405Z,99425.03
2023-09-14T16:52:47.890Z,99428.88
2023-09-14T16:55:17.900Z,99425.29
2023-09-14T16:57:48.896Z,99428.59
2023-09-14T17:00:19.986Z,99432.23
2023-09-14T17:02:48.624Z,99433.54
2023-09-14T17:05:19.913Z,99432.60
2023-09-14T17:07:48.975Z,99432.83
2023-09-14T17:10:19.776Z,99432.67
2023-09-14T17:12:48.258Z,99438.67
2023-09-14T17:15:16.986Z,99437.11
2023-09-14T17:17:45.643Z,99447.20
2023-09-14T17:20:14.167Z,99449.06
2023-09-14T17:22:42.639Z,99463.04
2023-09-14T17:25:11.565Z,99491.42
2023-09-14T17:27:41.217Z,99505.89
2023-09-14T17:30:10.197Z,99492.36
2023-09-14T17:32:38.797Z,99505.17
2023-09-14T17:35:08.210Z,99512.92
2023-09-14T17:37:37.367Z,99512.29
2023-09-14T17:40:09.654Z,99518.17
2023-09-14T17:42:38.293Z,99524.93
2023-09-14T17:45:07.881Z,99534.98
2023-09-14T17:47:36.502Z,99545.29
2023-09-14T17:50:06.276Z,99556.47
2023-09-14T17:52:34.861Z,99571.42
2023-09-14T17:55:04.040Z,99580.39
2023-09-14T17:57:32.566Z,99593.77
2023-09-14T18:00:01.015Z,99591.81
2023-09-14T18:02:29.710Z,99591.57
2023-09-14T18:04:58.363Z,99592.00
2023-09-14T18:07:26.894Z,99598.18
2023-09-14T18:09:55.561Z,99605.69
2023-09-14T18:12:24.159Z,99607.91
2023-09-14T18:14:52.664Z,99608.54
2023-09-14T18:17:21.523Z,99601.98
2023-09-14T18:19:52.058Z,99598.23
2023-09-14T18:22:20.537Z,99598.01
2023-09-14T18:24:53.971Z,99602.56
2023-09-14T18:27:22.887Z,99604.11
2023-09-14T18:29:51.290Z,99608.86
2023-09-14T18:32:19.880Z,99609.95
2023-09-14T18:34:49.493Z,99607.95
2023-09-14T18:37:17.996Z,99610.31
2023-09-14T18:39:48.912Z,99618.30
2023-09-14T18:42:18.012Z,99627.63
2023-09-14T18:44:46.511Z,99633.48
2023-09-14T18:47:14.984Z,99642.06
2023-09-14T18:49:43.477Z,99645.70
2023-09-14T18:52:15.992Z,99649.88
2023-09-14T18:54:45.318Z,99657.22
2023-09-14T18:57:14.018Z,99658.91
2023-09-14T18:59:42.780Z,99665.08
2023-09-14T19:02:11.286Z,99672.14
2023-09-14T19:04:39.821Z,99678.11
2023-09-14T19:07:08.384Z,99682.07
2023-09-14T19:09:38.226Z,99681.78
2023-09-14T19:12:07.293Z,99666.63
2023-09-14T19:14:35.860Z,99676.64
2023-09-14T19:17:06.640Z,99676.33
2023-09-14T19:19:35.379Z,99668.29
2023-09-14T19:22:06.065Z,99661.23
2023-09-14T19:24:35.782Z,99658.66
2023-09-14T19:27:04.888Z,99649.80
2023-09-14T19:29:33.270Z,99638.05
2023-09-14T19:32:01.785Z,99629.95
2023-09-14T19:34:30.783Z,99630.34
2023-09-14T19:37:00.196Z,99624.31
2023-09-14T19:39:28.773Z,99617.85
2023-09-14T19:41:57.357Z,99630.20
2023-09-14T19:44:25.892Z,99637.61
2023-09-14T19:46:54.367Z,99643.39
2023-09-14T19:49:22.904Z,99651.86
2023-09-14T19:51:51.419Z,99654.15
2023-09-14T19:54:19.990Z,99662.06
2023-09-14T19:56:48.580Z,99662.62
2023-09-14T19:59:17.132Z,99662.21
2023-09-14T20:01:49.513Z,99669.29
2023-09-14T20:04:20.100Z,99668.64
2023-09-14T20:06:48.660Z,99668.58
2023-09-14T20:09:17.311Z,99660.09
2023-09-14T20:11:45.902Z,99660.42
2023-09-14T20:14:14.605Z,99657.63
2023-09-14T20:16:45.118Z,99652.89
2023-09-14T20:19:13.723Z,99638.16
2023-09-14T20:21:42.192Z,99650.91
2023-09-14T20:24:10.801Z,99645.73
2023-09-14T20:26:39.927Z,99637.44
2023-09-14T20:29:09.427Z,99640.28
2023-09-14T20:31:38.590Z,99636.91
2023-09-14T20:34:07.420Z,99645.02
2023-09-14T20:36:36.721Z,99642.09
2023-09-14T20:39:11.864Z,99635.10
2023-09-14T20:41:40.481Z,99635.05
2023-09-14T20:44:08.997Z,99649.16
2023-09-14T20:46:38.681Z,99660.02
2023-09-14T20:49:15.508Z,99660.10
2023-09-14T20:51:45.927Z,99680.12
2023-09-14T20:54:17.575Z,99681.39
2023-09-14T20:56:46.216Z,99683.39
2023-09-14T20:59:17.418Z,99688.73
2023-09-14T21:01:47.332Z,99690.11
2023-09-14T21:04:16.051Z,99682.90
2023-09-14T21:06:44.710Z,99684.05
2023-09-14T21:09:13.217Z,99682.25
2023-09-14T21:11:41.686Z,99686.38
2023-09-14T21:14:10.204Z,99687.25
2023-09-14T21:16:38.848Z,99689.13
2023-09-14T21:19:07.367Z,99696.41
2023-09-14T21:21:37.917Z,99697.61
2023-09-14T21:24:06.823Z,99703.05
2023-09-14T21:26:35.338Z,99710.77
2023-09-14T21:29:03.880Z,99708.75
2023-09-14T21:31:33.262Z,99716.34
2023-09-14T21:34:02.378Z,99717.27
2023-09-14T21:36:31.058Z,99726.11
2023-09-14T21:38:59.596Z,99720.95
2023-09-14T21:41:28.546Z,99733.70
2023-09-14T21:43:56.942Z,99737.34
2023-09-14T21:46:26.881Z,99744.11
2023-09-14T21:48:55.454Z,99748.00
2023-09-14T21:51:23.985Z,99742.90
2023-09-14T21:53:52.805Z,99745.67
2023-09-14T21:56:21.583Z,99750.90
2023-09-14T21:58:50.233Z,99760.64
2023-09-14T22:01:19.080Z,99758.98
2023-09-14T22:03:52.072Z,99756.95
2023-09-14T22:06:25.318Z,99761.20
2023-09-14T22:08:54.422Z,99763.05
2023-09-14T22:11:23.048Z,99767.69
2023-09-14T22:13:51.642Z,99761.98
2023-09-14T22:16:20.492Z,99768.29
2023-09-14T22:18:49.432Z,99769.98
2023-09-14T22:21:20.861Z,99769.02
2023-09-14T22:23:49.304Z,99771.23
2023-09-14T22:26:18.245Z,99771.55
2023-09-14T22:28:46.871Z,99776.16
2023-09-14T22:31:17.850Z,99773.59
2023-09-14T22:33:46.398Z,99771.66
2023-09-14T22:36:14.922Z,99778.63
2023-09-14T22:38:43.708Z,99778.82
2023-09-14T22:41:12.304Z,99773.88
2023-09-14T22:43:41.705Z,99775.08
2023-09-14T22:46:11.290Z,99785.96
2023-09-14T22:48:42.385Z,99789.55
2023-09-14T22:51:18.216Z,99790.76
2023-09-14T22:53:49.186Z,99783.59
2023-09-14T22:56:18.688Z,99785.94
2023-09-14T22:58:52.525Z,99795.45
2023-09-14T23:01:27.749Z,99794.77
2023-09-14T23:03:57.442Z,99794.28
2023-09-14T23:06:26.094Z,99791.65
2023-09-14T23:08:54.566Z,99789.37
2023-09-14T23:11:29.971Z,99790.81
2023-09-14T23:13:59.288Z,99786.31
2023-09-14T23:16:40.994Z,99778.79
2023-09-14T23:19:10.476Z,99769.27
2023-09-14T23:21:39.455Z,99772.82
2023-09-14T23:24:11.328Z,99770.09
2023-09-14T23:26:41.791Z,99773.06
2023-09-14T23:29:12.910Z,99767.94
2023-09-14T23:31:43.892Z,99762.25
2023-09-14T23:34:18.144Z,99760.65
2023-09-14T23:36:47.398Z,99758.38
2023-09-14T23:39:16.325Z,99761.30
2023-09-14T23:41:45.515Z,99765.56
2023-09-14T23:44:17.067Z,99762.17
2023-09-14T23:46:47.311Z,99760.27
2023-09-14T23:49:16.287Z,99756.25
2023-09-14T23:51:46.099Z,99751.83
2023-09-14T23:54:16.069Z,99757.28
2023-09-14T23:56:44.663Z,99751.80
2023-09-14T23:59:13.455Z,99750.64
